アロフィ の空港の天気 - METARとTAF

ニウエ国際空港 ( NIUE / IUE ) - ニウエ アロフィ
飛行場実況気象(Metar)
観測時間09/18 12:00 NUT (09/18 23:00 UTC)
風向・風速北 6m/s
視程-
天気現象
-
気温29℃
湿度70%
気圧1016hPa
METARNIUE 182300Z AUTO 01011KT 320V050 // 29/23 Q1016
過去の天気等 Google飛行場航空写真 Wunderground天気予報

過去48時間のMETAR

飛行場予報(TAF)
データがありません